Time;durP1;ratioP1;P1;durP2;ratioP2;P2;SDS_P1;SDS_P2;PMS_P1;PMS_P2;Temp;Humidity;BMP_temperature;BMP_pressure;BME280_temperature;BME280_humidity;BME280_pressure;Samples;Min_cycle;Max_cycle;Signal;HPM_P1;HPM_P2
2022/01/24 00:02:09;;;;;;;3.43;3.23;;;;;;;;;;6315006;28;20234;-77
2022/01/24 00:05:16;;;;;;;3.23;3.03;;;;;;;;;;6316275;28;20247;-77
2022/01/24 00:08:23;;;;;;;3.20;3.07;;;;;;;;;;6315243;28;20246;-77
2022/01/24 00:11:37;;;;;;;3.00;2.80;;;;;;;;;;6315743;28;20227;-77
2022/01/24 00:15:00;;;;;;;3.17;3.07;;;;;;;;;;6315834;28;20279;-76
2022/01/24 00:18:13;;;;;;;3.20;3.00;;;;;;;;;;6314976;28;20236;-77
2022/01/24 00:28:03;;;;;;;2.83;2.73;;;;;;;;;;6314841;28;20251;-77
2022/01/24 00:31:07;;;;;;;3.40;3.23;;;;;;;;;;6306690;28;20197;-77
2022/01/24 00:34:13;;;;;;;2.23;2.23;;;;;;;;;;6290944;28;20210;-77
2022/01/24 00:37:17;;;;;;;3.13;2.77;;;;;;;;;;6288952;28;20504;-77
2022/01/24 00:40:22;;;;;;;2.80;2.60;;;;;;;;;;6289620;28;20526;-77
2022/01/24 00:43:31;;;;;;;2.47;2.37;;;;;;;;;;6289215;28;20418;-77
2022/01/24 00:46:41;;;;;;;2.97;2.80;;;;;;;;;;6289090;28;20281;-77
2022/01/24 00:49:53;;;;;;;2.33;2.30;;;;;;;;;;6290694;28;20185;-77
2022/01/24 00:53:12;;;;;;;2.90;2.70;;;;;;;;;;6288893;28;20564;-77
2022/01/24 00:56:17;;;;;;;2.50;2.50;;;;;;;;;;6270995;28;20209;-77
2022/01/24 00:59:22;;;;;;;2.77;2.67;;;;;;;;;;6290055;28;20191;-77
2022/01/24 01:02:26;;;;;;;2.90;2.80;;;;;;;;;;6288952;28;20233;-77
2022/01/24 01:05:44;;;;;;;2.30;2.10;;;;;;;;;;6289663;28;20218;-77
2022/01/24 01:19:04;;;;;;;3.33;3.13;;;;;;;;;;6289287;28;20232;-77
2022/01/24 01:22:10;;;;;;;2.77;2.67;;;;;;;;;;6288794;28;20294;-77
2022/01/24 01:25:15;;;;;;;3.10;2.83;;;;;;;;;;6288481;28;20202;-76
2022/01/24 01:28:22;;;;;;;2.90;2.77;;;;;;;;;;6288907;28;20246;-78
2022/01/24 01:31:36;;;;;;;2.73;2.63;;;;;;;;;;6279402;28;20225;-78
2022/01/24 01:35:00;;;;;;;3.03;2.83;;;;;;;;;;6265678;28;20290;-78
2022/01/24 01:55:24;;;;;;;3.87;2.97;;;;;;;;;;6288687;28;20230;-76
2022/01/24 01:58:29;;;;;;;3.67;3.37;;;;;;;;;;6312935;28;20228;-76
2022/01/24 02:01:34;;;;;;;3.00;2.90;;;;;;;;;;6313163;28;20255;-76
2022/01/24 02:04:40;;;;;;;3.30;3.00;;;;;;;;;;6312609;28;20191;-76
2022/01/24 02:07:47;;;;;;;3.40;3.07;;;;;;;;;;6312797;28;20228;-76
2022/01/24 02:10:51;;;;;;;3.10;3.00;;;;;;;;;;6313015;28;20257;-76
2022/01/24 02:13:58;;;;;;;4.30;3.90;;;;;;;;;;6311050;28;20285;-76
2022/01/24 02:17:09;;;;;;;3.80;3.50;;;;;;;;;;6312174;28;20255;-76
2022/01/24 02:20:37;;;;;;;4.13;3.73;;;;;;;;;;6312786;28;20185;-76
2022/01/24 02:23:43;;;;;;;3.73;3.20;;;;;;;;;;6311522;28;20300;-76
2022/01/24 02:26:49;;;;;;;3.80;3.53;;;;;;;;;;6311364;28;20254;-76
2022/01/24 02:30:07;;;;;;;3.37;3.17;;;;;;;;;;6312568;28;20263;-76
2022/01/24 02:33:14;;;;;;;4.53;4.20;;;;;;;;;;6261605;28;20231;-76
2022/01/24 02:36:20;;;;;;;3.90;3.60;;;;;;;;;;6262356;28;20185;-76
2022/01/24 02:49:30;;;;;;;4.37;4.07;;;;;;;;;;6261072;28;20232;-76
2022/01/24 02:52:34;;;;;;;4.47;4.07;;;;;;;;;;6261704;28;20266;-76
2022/01/24 02:55:41;;;;;;;4.10;3.80;;;;;;;;;;6261500;28;20217;-76
2022/01/24 02:58:46;;;;;;;3.87;3.67;;;;;;;;;;6261451;28;20236;-76
2022/01/24 03:01:51;;;;;;;4.13;3.80;;;;;;;;;;6262018;28;20268;-76
2022/01/24 03:04:57;;;;;;;3.87;3.63;;;;;;;;;;6261311;28;20193;-76
2022/01/24 03:08:01;;;;;;;4.20;3.80;;;;;;;;;;6261117;28;20309;-76
2022/01/24 03:11:07;;;;;;;4.63;4.03;;;;;;;;;;6260662;28;20355;-76
2022/01/24 03:14:12;;;;;;;4.17;3.33;;;;;;;;;;6261058;28;20303;-76
2022/01/24 03:17:16;;;;;;;24.40;14.53;;;;;;;;;;6261526;28;20331;-76
2022/01/24 03:20:21;;;;;;;3.70;3.50;;;;;;;;;;6261583;28;20189;-76
2022/01/24 03:23:25;;;;;;;3.23;3.00;;;;;;;;;;6260845;28;20228;-76
2022/01/24 03:26:31;;;;;;;5.87;3.37;;;;;;;;;;6261208;28;20235;-76
2022/01/24 03:29:35;;;;;;;3.87;2.90;;;;;;;;;;6261455;28;20196;-76
2022/01/24 03:32:39;;;;;;;4.97;2.80;;;;;;;;;;6260698;28;20602;-76
2022/01/24 03:35:43;;;;;;;3.00;2.90;;;;;;;;;;6262048;28;20230;-77
2022/01/24 03:38:48;;;;;;;78.10;42.63;;;;;;;;;;6303596;28;20231;-76
2022/01/24 03:41:54;;;;;;;3.00;2.80;;;;;;;;;;6311265;28;20389;-76
2022/01/24 03:45:01;;;;;;;3.20;2.93;;;;;;;;;;6310445;28;20230;-76
2022/01/24 03:48:09;;;;;;;2.13;2.13;;;;;;;;;;6310728;28;20233;-76
2022/01/24 03:51:14;;;;;;;3.23;2.60;;;;;;;;;;6310446;28;20469;-77
2022/01/24 03:54:18;;;;;;;2.97;2.80;;;;;;;;;;6310238;28;20246;-76
2022/01/24 03:57:24;;;;;;;3.93;2.40;;;;;;;;;;6310436;28;20226;-76
2022/01/24 04:00:28;;;;;;;2.70;2.50;;;;;;;;;;6310194;28;20567;-76
2022/01/24 04:03:34;;;;;;;2.87;2.70;;;;;;;;;;6310315;28;20231;-76
2022/01/24 04:06:38;;;;;;;2.73;2.63;;;;;;;;;;6309852;28;20463;-76
2022/01/24 04:09:43;;;;;;;4.93;2.50;;;;;;;;;;6311447;28;20253;-76
2022/01/24 04:12:50;;;;;;;3.20;2.43;;;;;;;;;;6310104;28;20252;-76
2022/01/24 04:16:27;;;;;;;2.53;2.30;;;;;;;;;;6311050;28;20254;-76
2022/01/24 04:21:19;;;;;;;2.93;2.40;;;;;;;;;;6310786;28;20203;-77
2022/01/24 04:22:58;;;;;;;4.60;2.50;;;;;;;;;;6309662;28;20230;-77
2022/01/24 04:26:02;;;;;;;5.60;2.23;;;;;;;;;;6310538;28;20256;-77
2022/01/24 04:29:09;;;;;;;7.40;4.70;;;;;;;;;;6310168;28;20515;-77
2022/01/24 04:32:13;;;;;;;2.63;2.43;;;;;;;;;;6293052;28;20467;-77
2022/01/24 04:35:17;;;;;;;2.40;2.17;;;;;;;;;;6286223;28;20212;-77
2022/01/24 04:38:21;;;;;;;6.00;2.30;;;;;;;;;;6288084;28;20248;-77
2022/01/24 04:41:29;;;;;;;2.13;2.07;;;;;;;;;;6289930;28;20240;-77
2022/01/24 04:44:51;;;;;;;3.37;2.50;;;;;;;;;;6289559;28;20185;-77
2022/01/24 04:51:31;;;;;;;2.33;2.10;;;;;;;;;;6290002;28;20216;-77
2022/01/24 04:54:40;;;;;;;5.50;1.90;;;;;;;;;;6289065;28;20413;-77
2022/01/24 04:57:46;;;;;;;5.07;1.90;;;;;;;;;;6288680;28;20254;-77
2022/01/24 05:00:51;;;;;;;2.47;2.27;;;;;;;;;;6289274;28;20462;-77
2022/01/24 05:03:55;;;;;;;1.53;1.53;;;;;;;;;;6289013;28;20234;-77
2022/01/24 05:07:00;;;;;;;1.97;1.87;;;;;;;;;;6288614;28;20579;-77
2022/01/24 05:10:12;;;;;;;2.07;1.97;;;;;;;;;;6288784;28;20538;-77
2022/01/24 05:23:29;;;;;;;3.57;1.77;;;;;;;;;;6288721;28;20235;-77
2022/01/24 05:26:33;;;;;;;5.60;1.77;;;;;;;;;;6288680;28;20294;-77
2022/01/24 05:29:37;;;;;;;4.13;1.80;;;;;;;;;;6288970;28;20253;-77
2022/01/24 05:32:43;;;;;;;4.47;1.60;;;;;;;;;;6267709;28;20295;-77
2022/01/24 05:35:47;;;;;;;2.23;1.47;;;;;;;;;;6264405;28;20232;-77
2022/01/24 05:38:52;;;;;;;5.07;1.43;;;;;;;;;;6307342;28;20313;-77
2022/01/24 05:41:56;;;;;;;1.40;1.40;;;;;;;;;;6313229;28;20257;-77
2022/01/24 05:45:01;;;;;;;1.20;1.20;;;;;;;;;;6313459;28;20290;-77
2022/01/24 05:48:07;;;;;;;1.60;1.33;;;;;;;;;;6311685;28;20448;-75
2022/01/24 05:51:12;;;;;;;2.20;1.50;;;;;;;;;;6312227;28;20191;-76
2022/01/24 05:54:16;;;;;;;1.67;1.53;;;;;;;;;;6313930;28;20195;-75
2022/01/24 05:57:20;;;;;;;2.17;1.27;;;;;;;;;;6312005;28;20236;-75
2022/01/24 06:00:24;;;;;;;4.67;1.40;;;;;;;;;;6313688;28;20218;-75
2022/01/24 06:03:30;;;;;;;1.33;1.33;;;;;;;;;;6311684;28;20421;-75
2022/01/24 06:06:35;;;;;;;1.67;1.60;;;;;;;;;;6311747;28;20230;-75
2022/01/24 06:09:39;;;;;;;1.67;1.00;;;;;;;;;;6312998;28;20218;-76
2022/01/24 06:12:42;;;;;;;5.13;1.03;;;;;;;;;;6312188;28;20298;-77
2022/01/24 06:15:49;;;;;;;6.30;1.53;;;;;;;;;;6313758;28;20221;-77
2022/01/24 06:18:54;;;;;;;1.17;1.17;;;;;;;;;;6312675;28;20588;-77
2022/01/24 06:21:59;;;;;;;4.93;1.13;;;;;;;;;;6310930;28;20410;-76
2022/01/24 06:25:03;;;;;;;2.23;1.47;;;;;;;;;;6312995;28;20188;-76
2022/01/24 06:28:18;;;;;;;2.20;1.40;;;;;;;;;;6312129;28;20339;-77
2022/01/24 06:31:22;;;;;;;3.37;1.23;;;;;;;;;;6302981;28;20245;-76
2022/01/24 06:34:28;;;;;;;4.20;1.63;;;;;;;;;;6288485;28;20192;-76
2022/01/24 06:37:32;;;;;;;2.93;1.40;;;;;;;;;;6286527;28;20242;-76
2022/01/24 06:40:36;;;;;;;3.77;1.30;;;;;;;;;;6287502;28;20219;-76
2022/01/24 06:43:40;;;;;;;5.93;1.30;;;;;;;;;;6286560;28;20230;-76
2022/01/24 06:46:45;;;;;;;1.00;1.00;;;;;;;;;;6286894;28;20290;-76
2022/01/24 06:49:51;;;;;;;1.33;1.33;;;;;;;;;;6286685;28;20194;-76
2022/01/24 06:52:55;;;;;;;5.23;1.73;;;;;;;;;;6286499;28;20233;-76
2022/01/24 06:55:59;;;;;;;1.67;1.57;;;;;;;;;;6287150;28;20186;-77
2022/01/24 06:59:04;;;;;;;5.60;1.50;;;;;;;;;;6286569;28;20237;-76
2022/01/24 07:02:09;;;;;;;3.40;1.63;;;;;;;;;;6286140;28;20301;-77
2022/01/24 07:05:15;;;;;;;1.23;1.13;;;;;;;;;;6287717;28;20193;-77
2022/01/24 07:08:20;;;;;;;3.13;1.67;;;;;;;;;;6287198;28;20231;-77
2022/01/24 07:11:24;;;;;;;6.30;1.90;;;;;;;;;;6286858;28;20246;-77
2022/01/24 07:14:28;;;;;;;4.43;1.30;;;;;;;;;;6287001;28;20233;-77
2022/01/24 07:17:56;;;;;;;7.73;1.10;;;;;;;;;;6286199;28;20249;-77
2022/01/24 07:21:02;;;;;;;4.13;1.40;;;;;;;;;;6285884;28;20254;-77
2022/01/24 07:24:07;;;;;;;4.73;1.20;;;;;;;;;;6285271;28;20247;-76
2022/01/24 07:27:12;;;;;;;3.40;1.40;;;;;;;;;;6286912;28;20235;-78
2022/01/24 07:30:16;;;;;;;6.17;1.50;;;;;;;;;;6286917;28;20186;-77
2022/01/24 07:33:22;;;;;;;1.13;1.10;;;;;;;;;;6261498;28;20238;-76
2022/01/24 07:36:27;;;;;;;2.83;1.30;;;;;;;;;;6264280;28;20233;-76
2022/01/24 07:39:32;;;;;;;3.80;1.33;;;;;;;;;;6310549;28;20250;-76
2022/01/24 07:42:54;;;;;;;1.67;1.20;;;;;;;;;;6310636;28;20249;-76
2022/01/24 07:45:59;;;;;;;1.40;1.30;;;;;;;;;;6311254;28;20190;-76
2022/01/24 07:49:06;;;;;;;2.13;1.40;;;;;;;;;;6310415;28;20233;-76
2022/01/24 07:52:13;;;;;;;6.53;1.27;;;;;;;;;;6310766;28;20294;-76
2022/01/24 07:55:18;;;;;;;1.00;1.00;;;;;;;;;;6311566;28;20194;-76
2022/01/24 07:58:22;;;;;;;1.03;1.03;;;;;;;;;;6309926;28;20294;-76
2022/01/24 08:01:26;;;;;;;4.13;1.70;;;;;;;;;;6310554;28;20353;-76
2022/01/24 08:04:30;;;;;;;2.07;1.30;;;;;;;;;;6310510;28;20187;-76
2022/01/24 08:07:36;;;;;;;3.10;1.00;;;;;;;;;;6310285;28;20223;-76
2022/01/24 08:10:40;;;;;;;1.47;1.00;;;;;;;;;;6311421;28;20192;-77
2022/01/24 08:13:45;;;;;;;1.10;1.10;;;;;;;;;;6313810;28;20252;-76
2022/01/24 08:16:49;;;;;;;1.33;1.00;;;;;;;;;;6315171;28;20267;-76
2022/01/24 08:19:53;;;;;;;2.37;1.13;;;;;;;;;;6315773;28;20197;-76
2022/01/24 08:22:59;;;;;;;2.37;1.07;;;;;;;;;;6315041;28;20258;-76
2022/01/24 08:26:04;;;;;;;1.90;1.13;;;;;;;;;;6314995;28;20191;-76
2022/01/24 08:29:08;;;;;;;2.53;1.30;;;;;;;;;;6314769;28;20273;-76
2022/01/24 08:32:12;;;;;;;4.13;1.10;;;;;;;;;;6298148;28;20234;-76
2022/01/24 08:35:18;;;;;;;1.30;1.20;;;;;;;;;;6290555;28;20188;-76
2022/01/24 08:38:24;;;;;;;2.90;1.43;;;;;;;;;;6290028;28;20301;-77
2022/01/24 08:41:40;;;;;;;1.93;1.13;;;;;;;;;;6288989;28;20306;-76
2022/01/24 08:48:06;;;;;;;2.70;1.30;;;;;;;;;;6289936;28;20246;-76
2022/01/24 08:51:11;;;;;;;9.00;1.27;;;;;;;;;;6288701;28;20195;-77
2022/01/24 08:54:37;;;;;;;1.30;1.10;;;;;;;;;;6289081;28;20497;-76
2022/01/24 08:57:41;;;;;;;2.00;1.20;;;;;;;;;;6288927;28;20261;-77
2022/01/24 09:00:46;;;;;;;1.10;1.10;;;;;;;;;;6289007;28;20207;-77
2022/01/24 09:03:50;;;;;;;1.40;1.30;;;;;;;;;;6288710;28;20228;-77
2022/01/24 09:06:55;;;;;;;3.20;1.40;;;;;;;;;;6288476;28;20233;-77
2022/01/24 09:10:00;;;;;;;5.10;0.87;;;;;;;;;;6289249;28;20188;-77
2022/01/24 09:13:05;;;;;;;1.30;1.20;;;;;;;;;;6288890;28;20514;-77
2022/01/24 09:16:10;;;;;;;2.00;1.40;;;;;;;;;;6288834;28;20221;-77
2022/01/24 09:19:15;;;;;;;1.10;1.10;;;;;;;;;;6289860;28;20213;-77
2022/01/24 09:22:19;;;;;;;2.17;1.07;;;;;;;;;;6288259;28;20523;-77
2022/01/24 09:25:25;;;;;;;1.70;1.20;;;;;;;;;;6289571;28;20187;-77
2022/01/24 09:28:30;;;;;;;1.50;1.20;;;;;;;;;;6288880;28;20244;-77
2022/01/24 09:31:34;;;;;;;5.03;1.40;;;;;;;;;;6277153;28;20225;-77
2022/01/24 09:34:38;;;;;;;2.53;1.00;;;;;;;;;;6264695;28;20305;-77
2022/01/24 09:37:43;;;;;;;1.87;1.17;;;;;;;;;;6287593;28;20500;-77
2022/01/24 09:40:49;;;;;;;4.87;1.03;;;;;;;;;;6314192;28;20257;-77
2022/01/24 09:43:52;;;;;;;6.70;1.50;;;;;;;;;;6312475;28;20235;-77
2022/01/24 09:46:58;;;;;;;1.83;1.30;;;;;;;;;;6313357;28;20230;-77
2022/01/24 09:50:04;;;;;;;2.30;1.10;;;;;;;;;;6312851;28;20333;-77
2022/01/24 09:53:10;;;;;;;2.97;1.03;;;;;;;;;;6312745;28;20236;-76
2022/01/24 09:56:17;;;;;;;1.20;1.10;;;;;;;;;;6313215;28;20220;-76
2022/01/24 09:59:21;;;;;;;1.33;1.23;;;;;;;;;;6312648;28;20234;-76
2022/01/24 10:02:26;;;;;;;5.77;1.10;;;;;;;;;;6312665;28;20247;-76
2022/01/24 10:05:37;;;;;;;1.57;1.23;;;;;;;;;;6312177;28;20252;-76
2022/01/24 10:09:08;;;;;;;1.47;1.33;;;;;;;;;;6312419;28;20409;-76
2022/01/24 10:12:26;;;;;;;1.20;1.10;;;;;;;;;;6311837;28;20475;-76
2022/01/24 10:19:09;;;;;;;5.03;1.10;;;;;;;;;;6306587;28;20260;-76
2022/01/24 10:22:33;;;;;;;5.40;1.50;;;;;;;;;;6311655;28;20372;-77
2022/01/24 10:25:59;;;;;;;5.40;1.20;;;;;;;;;;6312761;28;20187;-77
2022/01/24 10:29:10;;;;;;;1.27;1.27;;;;;;;;;;6311664;28;20247;-76
2022/01/24 10:32:36;;;;;;;1.47;1.13;;;;;;;;;;6294812;28;20237;-76
2022/01/24 10:35:44;;;;;;;3.10;1.23;;;;;;;;;;6287408;28;20349;-77
2022/01/24 10:38:55;;;;;;;2.50;1.30;;;;;;;;;;6286345;28;20237;-77
2022/01/24 10:42:52;;;;;;;2.27;1.30;;;;;;;;;;6287173;28;20233;-78
2022/01/24 10:45:58;;;;;;;4.50;1.30;;;;;;;;;;6287771;28;20190;-76
2022/01/24 10:49:04;;;;;;;1.10;1.10;;;;;;;;;;6286872;28;20230;-76
2022/01/24 10:52:11;;;;;;;1.20;1.20;;;;;;;;;;6286113;28;20241;-76
2022/01/24 10:55:17;;;;;;;1.10;1.10;;;;;;;;;;6286241;28;20331;-76
2022/01/24 10:58:23;;;;;;;5.40;1.27;;;;;;;;;;6286529;28;20539;-76
2022/01/24 11:01:30;;;;;;;1.47;1.20;;;;;;;;;;6287458;28;20240;-77
2022/01/24 11:04:34;;;;;;;1.13;1.13;;;;;;;;;;6287804;28;20190;-77
2022/01/24 11:07:51;;;;;;;2.10;1.40;;;;;;;;;;6285865;28;20289;-77
2022/01/24 11:10:56;;;;;;;179.57;88.77;;;;;;;;;;6287595;28;20474;-77
2022/01/24 11:14:01;;;;;;;67.83;32.10;;;;;;;;;;6286436;28;20472;-77
2022/01/24 11:17:09;;;;;;;1.47;1.13;;;;;;;;;;6285858;28;20527;-77
2022/01/24 11:20:17;;;;;;;27.57;12.30;;;;;;;;;;6287138;28;20216;-77
2022/01/24 11:23:21;;;;;;;19.63;10.37;;;;;;;;;;6286050;28;20509;-78
2022/01/24 11:26:26;;;;;;;3.63;1.10;;;;;;;;;;6286512;28;20253;-77
2022/01/24 11:29:30;;;;;;;66.10;35.50;;;;;;;;;;6287141;28;20267;-77
2022/01/24 11:32:40;;;;;;;84.70;41.53;;;;;;;;;;6266428;28;20237;-77
2022/01/24 11:35:52;;;;;;;1.27;1.27;;;;;;;;;;6262516;28;20250;-77
2022/01/24 11:38:58;;;;;;;1.40;1.30;;;;;;;;;;6305708;28;20429;-77
2022/01/24 11:42:03;;;;;;;6.67;1.50;;;;;;;;;;6310450;28;20464;-78
2022/01/24 11:45:13;;;;;;;1.67;1.47;;;;;;;;;;6310697;28;20481;-77
2022/01/24 11:48:21;;;;;;;63.47;34.60;;;;;;;;;;6315800;28;20235;-77
2022/01/24 11:51:31;;;;;;;6.33;1.53;;;;;;;;;;6315245;28;20533;-78
2022/01/24 11:54:45;;;;;;;2.80;1.37;;;;;;;;;;6316095;28;20528;-78
2022/01/24 11:57:50;;;;;;;7.67;1.67;;;;;;;;;;6316045;28;20243;-78
2022/01/24 12:00:57;;;;;;;3.17;1.40;;;;;;;;;;6317100;28;20279;-78
2022/01/24 12:04:02;;;;;;;5.20;1.50;;;;;;;;;;6315414;28;20463;-77
2022/01/24 12:07:17;;;;;;;3.23;1.40;;;;;;;;;;6315975;28;20254;-77
2022/01/24 12:10:45;;;;;;;1.03;1.03;;;;;;;;;;6316412;28;20189;-77
2022/01/24 12:13:53;;;;;;;2.57;1.60;;;;;;;;;;6296787;28;20562;-77
2022/01/24 12:17:00;;;;;;;1.40;1.30;;;;;;;;;;6314536;28;20539;-77
2022/01/24 12:20:37;;;;;;;4.37;1.73;;;;;;;;;;6314811;28;20271;-77
2022/01/24 12:23:45;;;;;;;2.90;1.37;;;;;;;;;;6302676;28;20294;-77
2022/01/24 12:27:14;;;;;;;2.40;1.40;;;;;;;;;;6315290;28;20232;-78
2022/01/24 12:30:19;;;;;;;3.50;1.40;;;;;;;;;;6315040;28;20212;-77
2022/01/24 12:33:30;;;;;;;2.53;1.37;;;;;;;;;;6291551;28;20229;-77
2022/01/24 12:37:10;;;;;;;7.53;5.13;;;;;;;;;;6290161;28;20236;-78
2022/01/24 12:40:25;;;;;;;21.60;10.90;;;;;;;;;;6290597;28;20225;-78
2022/01/24 12:43:50;;;;;;;16.73;6.50;;;;;;;;;;6289905;28;20238;-77
2022/01/24 12:46:54;;;;;;;175.70;83.60;;;;;;;;;;6290149;28;20241;-76
2022/01/24 12:49:58;;;;;;;2.87;1.30;;;;;;;;;;6290758;28;20229;-76
2022/01/24 12:53:10;;;;;;;5.87;3.13;;;;;;;;;;6289353;28;20422;-77
2022/01/24 12:56:18;;;;;;;13.53;6.50;;;;;;;;;;6290133;28;20189;-77
2022/01/24 12:59:22;;;;;;;5.13;1.50;;;;;;;;;;6291658;28;20185;-80
2022/01/24 13:02:27;;;;;;;1.80;1.37;;;;;;;;;;6290270;28;20543;-82
2022/01/24 13:05:37;;;;;;;4.87;1.80;;;;;;;;;;6290377;28;20195;-77
2022/01/24 13:08:52;;;;;;;59.83;27.07;;;;;;;;;;6288724;28;20229;-77
2022/01/24 13:12:00;;;;;;;1.20;1.20;;;;;;;;;;6289073;28;20289;-77
2022/01/24 13:15:09;;;;;;;1.90;1.50;;;;;;;;;;6289829;28;20188;-77
2022/01/24 13:21:44;;;;;;;3.60;1.70;;;;;;;;;;6288592;28;20325;-79
2022/01/24 13:25:06;;;;;;;1.30;1.30;;;;;;;;;;6288792;28;20198;-77
2022/01/24 13:28:18;;;;;;;88.00;41.03;;;;;;;;;;6271541;28;20287;-77
2022/01/24 13:31:28;;;;;;;3.13;1.70;;;;;;;;;;6278231;28;20250;-77
2022/01/24 13:34:33;;;;;;;1.83;1.40;;;;;;;;;;6263561;28;20384;-77
2022/01/24 13:37:37;;;;;;;2.33;1.40;;;;;;;;;;6286116;28;20235;-77
2022/01/24 13:40:51;;;;;;;3.93;1.30;;;;;;;;;;6313065;28;20357;-77
2022/01/24 13:44:02;;;;;;;3.03;1.50;;;;;;;;;;6312780;28;20237;-77
2022/01/24 13:47:27;;;;;;;123.27;51.90;;;;;;;;;;6311909;28;20595;-77
2022/01/24 13:50:32;;;;;;;1.63;1.57;;;;;;;;;;6313719;28;20191;-77
2022/01/24 13:53:38;;;;;;;2.87;1.50;;;;;;;;;;6313447;28;20234;-77
2022/01/24 13:56:44;;;;;;;2.83;1.57;;;;;;;;;;6313143;28;20230;-77
2022/01/24 13:59:50;;;;;;;1.73;1.57;;;;;;;;;;6313518;28;20191;-77
2022/01/24 14:03:10;;;;;;;3.20;1.73;;;;;;;;;;6311913;28;20416;-77
2022/01/24 14:06:31;;;;;;;1.23;1.20;;;;;;;;;;6311739;28;20329;-77
2022/01/24 14:09:41;;;;;;;5.67;1.40;;;;;;;;;;6310921;28;20528;-76
2022/01/24 14:12:49;;;;;;;14.90;6.23;;;;;;;;;;6313154;28;20293;-77
2022/01/24 14:16:02;;;;;;;3.40;2.47;;;;;;;;;;6312080;28;20220;-76
2022/01/24 14:19:08;;;;;;;2.90;1.87;;;;;;;;;;6311979;28;20345;-76
2022/01/24 14:22:15;;;;;;;26.10;11.53;;;;;;;;;;6312862;28;20252;-77
2022/01/24 14:25:21;;;;;;;2.77;1.47;;;;;;;;;;6313011;28;20220;-77
2022/01/24 14:28:26;;;;;;;58.97;30.47;;;;;;;;;;6312513;28;20228;-77
2022/01/24 14:31:31;;;;;;;76.40;41.53;;;;;;;;;;6300794;28;20227;-77
2022/01/24 14:34:36;;;;;;;156.90;72.67;;;;;;;;;;6286974;28;20430;-77
2022/01/24 14:37:50;;;;;;;1.40;1.30;;;;;;;;;;6285854;28;20258;-77
2022/01/24 14:40:56;;;;;;;1.20;1.20;;;;;;;;;;6286744;28;20290;-77
2022/01/24 14:47:25;;;;;;;2.10;1.67;;;;;;;;;;6288120;28;20436;-77
2022/01/24 14:50:30;;;;;;;2.40;1.50;;;;;;;;;;6287228;28;20571;-76
2022/01/24 14:53:35;;;;;;;1.83;1.73;;;;;;;;;;6286776;28;20232;-76
2022/01/24 14:56:41;;;;;;;2.67;1.43;;;;;;;;;;6287160;28;20253;-77
2022/01/24 14:59:46;;;;;;;4.27;1.70;;;;;;;;;;6287565;28;20406;-76
2022/01/24 15:02:52;;;;;;;30.63;15.20;;;;;;;;;;6269761;28;20299;-76
2022/01/24 15:05:58;;;;;;;2.00;1.47;;;;;;;;;;6287677;28;20234;-76
2022/01/24 15:09:07;;;;;;;1.93;1.80;;;;;;;;;;6287348;28;20545;-76
2022/01/24 15:12:11;;;;;;;16.67;9.27;;;;;;;;;;6286610;28;20515;-76
2022/01/24 15:15:21;;;;;;;60.53;35.33;;;;;;;;;;6286442;28;20560;-76
2022/01/24 15:25:30;;;;;;;4.90;1.27;;;;;;;;;;6287381;28;20192;-75
2022/01/24 15:28:34;;;;;;;1.40;1.30;;;;;;;;;;6252944;28;20248;-75
2022/01/24 15:31:38;;;;;;;27.77;12.73;;;;;;;;;;6263487;28;20231;-76
2022/01/24 15:34:44;;;;;;;11.17;3.77;;;;;;;;;;6262719;28;20185;-76
2022/01/24 15:37:49;;;;;;;27.90;15.53;;;;;;;;;;6287561;28;20590;-76
2022/01/24 15:40:53;;;;;;;1.30;1.30;;;;;;;;;;6311891;28;20195;-76
2022/01/24 15:44:04;;;;;;;61.33;30.07;;;;;;;;;;6311456;28;20301;-76
2022/01/24 15:47:30;;;;;;;3.47;1.73;;;;;;;;;;6311309;28;20271;-76
2022/01/24 15:50:37;;;;;;;2.40;1.70;;;;;;;;;;6312198;28;20413;-76
2022/01/24 15:53:43;;;;;;;1.80;1.60;;;;;;;;;;6310811;28;20570;-75
2022/01/24 16:00:16;;;;;;;3.87;1.63;;;;;;;;;;6311893;28;20188;-75
2022/01/24 16:03:21;;;;;;;3.13;1.40;;;;;;;;;;6311253;28;20239;-76
2022/01/24 16:06:26;;;;;;;2.13;1.40;;;;;;;;;;6311238;28;20255;-77
2022/01/24 16:09:30;;;;;;;4.00;1.30;;;;;;;;;;6312366;28;20191;-76
2022/01/24 16:12:34;;;;;;;16.83;10.23;;;;;;;;;;6310991;28;20235;-76
2022/01/24 16:15:40;;;;;;;3.67;1.57;;;;;;;;;;6312468;28;20261;-76
2022/01/24 16:18:45;;;;;;;1.40;1.30;;;;;;;;;;6311467;28;20238;-76
2022/01/24 16:22:01;;;;;;;4.47;1.40;;;;;;;;;;6312292;28;20271;-76
2022/01/24 16:25:34;;;;;;;1.60;1.40;;;;;;;;;;6313080;28;20187;-76
2022/01/24 16:28:39;;;;;;;22.03;8.60;;;;;;;;;;6312030;28;20238;-76
2022/01/24 16:31:43;;;;;;;4.10;1.47;;;;;;;;;;6299184;28;20234;-76
2022/01/24 16:34:48;;;;;;;1.00;1.00;;;;;;;;;;6290946;28;20192;-77
2022/01/24 16:37:54;;;;;;;1.53;1.43;;;;;;;;;;6292108;28;20250;-76
2022/01/24 16:41:06;;;;;;;1.83;1.73;;;;;;;;;;6292430;28;20188;-76
2022/01/24 16:44:23;;;;;;;1.80;1.70;;;;;;;;;;6292105;28;20293;-76
2022/01/24 16:47:27;;;;;;;1.53;1.53;;;;;;;;;;6292463;28;20235;-76
2022/01/24 16:50:31;;;;;;;3.10;1.40;;;;;;;;;;6292900;28;20186;-76
2022/01/24 16:53:40;;;;;;;1.77;1.70;;;;;;;;;;6291838;28;20465;-76
2022/01/24 16:56:45;;;;;;;16.60;11.40;;;;;;;;;;6291231;28;20257;-76
2022/01/24 16:59:49;;;;;;;6.13;3.73;;;;;;;;;;6292917;28;20429;-76
2022/01/24 17:02:53;;;;;;;19.27;9.73;;;;;;;;;;6291960;28;20246;-76
2022/01/24 17:05:58;;;;;;;1.97;1.70;;;;;;;;;;6292373;28;20207;-76
2022/01/24 17:09:04;;;;;;;6.50;1.73;;;;;;;;;;6291739;28;20231;-76
2022/01/24 17:12:11;;;;;;;39.63;18.80;;;;;;;;;;6291647;28;20304;-76
2022/01/24 17:15:15;;;;;;;2.80;1.20;;;;;;;;;;6292549;28;20248;-76
2022/01/24 17:18:23;;;;;;;3.10;1.70;;;;;;;;;;6291003;28;20545;-76
2022/01/24 17:21:27;;;;;;;2.67;1.50;;;;;;;;;;6290758;28;20546;-76
2022/01/24 17:24:52;;;;;;;1.63;1.53;;;;;;;;;;6291206;28;20188;-76
2022/01/24 17:28:01;;;;;;;1.60;1.50;;;;;;;;;;6290692;28;20315;-76
2022/01/24 17:31:06;;;;;;;2.90;1.70;;;;;;;;;;6283482;28;20215;-77
2022/01/24 17:34:13;;;;;;;7.40;1.60;;;;;;;;;;6267485;28;20196;-76
2022/01/24 17:37:17;;;;;;;3.90;1.63;;;;;;;;;;6283414;28;20238;-76
2022/01/24 17:40:23;;;;;;;2.40;1.90;;;;;;;;;;6315440;28;20184;-76
2022/01/24 17:43:28;;;;;;;1.83;1.70;;;;;;;;;;6296912;28;20308;-76
2022/01/24 17:46:32;;;;;;;2.10;2.00;;;;;;;;;;6315568;28;20233;-76
2022/01/24 17:49:36;;;;;;;33.10;16.43;;;;;;;;;;6317190;28;20196;-77
2022/01/24 17:52:41;;;;;;;27.77;18.20;;;;;;;;;;6314891;28;20237;-76
2022/01/24 17:55:47;;;;;;;6.53;2.20;;;;;;;;;;6315947;28;20192;-76
2022/01/24 17:58:51;;;;;;;2.00;1.93;;;;;;;;;;6315304;28;20509;-76
2022/01/24 18:01:56;;;;;;;6.00;1.70;;;;;;;;;;6295208;28;20301;-77
2022/01/24 18:05:00;;;;;;;1.40;1.40;;;;;;;;;;6313781;28;20215;-79
2022/01/24 18:08:05;;;;;;;19.40;10.77;;;;;;;;;;6313500;28;20229;-77
2022/01/24 18:11:11;;;;;;;91.80;48.43;;;;;;;;;;6313119;28;20411;-75
2022/01/24 18:14:15;;;;;;;5.57;1.73;;;;;;;;;;6318349;28;20190;-78
2022/01/24 18:17:19;;;;;;;4.00;1.80;;;;;;;;;;6317397;28;20249;-79
2022/01/24 18:20:29;;;;;;;4.20;1.80;;;;;;;;;;6320544;28;20189;-78
2022/01/24 18:27:33;;;;;;;2.93;1.67;;;;;;;;;;6318429;28;20286;-78
2022/01/24 18:30:39;;;;;;;3.50;1.83;;;;;;;;;;6309123;28;20210;-79
2022/01/24 18:33:48;;;;;;;3.03;1.90;;;;;;;;;;6294407;28;20224;-77
2022/01/24 18:37:21;;;;;;;56.53;28.83;;;;;;;;;;6288242;28;20246;-78
2022/01/24 18:40:58;;;;;;;6.73;1.53;;;;;;;;;;6294759;28;20371;-77
2022/01/24 18:44:05;;;;;;;8.80;1.70;;;;;;;;;;6296025;28;20228;-78
2022/01/24 18:48:03;;;;;;;6.10;1.83;;;;;;;;;;6275248;28;20298;-77
2022/01/24 18:51:24;;;;;;;5.33;1.90;;;;;;;;;;6294451;28;20193;-77
2022/01/24 18:54:31;;;;;;;133.43;55.20;;;;;;;;;;6290962;28;20211;-77
2022/01/24 18:57:36;;;;;;;2.87;1.67;;;;;;;;;;6283638;28;20230;-79
2022/01/24 19:01:19;;;;;;;3.73;1.63;;;;;;;;;;6270275;28;20547;-78
2022/01/24 19:04:23;;;;;;;7.43;2.00;;;;;;;;;;6287919;28;20506;-78
2022/01/24 19:07:28;;;;;;;3.47;1.70;;;;;;;;;;6287065;28;20446;-78
2022/01/24 19:10:33;;;;;;;37.83;21.53;;;;;;;;;;6287503;28;20199;-78
2022/01/24 19:13:38;;;;;;;3.53;1.60;;;;;;;;;;6286839;28;20234;-78
2022/01/24 19:16:45;;;;;;;9.23;1.87;;;;;;;;;;6286389;28;20365;-78
2022/01/24 19:19:59;;;;;;;3.37;1.63;;;;;;;;;;6287580;28;20193;-78
2022/01/24 19:23:16;;;;;;;78.77;43.33;;;;;;;;;;6286116;28;20430;-78
2022/01/24 19:26:20;;;;;;;5.20;1.50;;;;;;;;;;6285877;28;20491;-77
2022/01/24 19:29:24;;;;;;;5.43;1.67;;;;;;;;;;6287055;28;20252;-78
2022/01/24 19:32:30;;;;;;;47.33;23.97;;;;;;;;;;6268100;28;20237;-78
2022/01/24 19:35:34;;;;;;;8.87;2.00;;;;;;;;;;6262685;28;20192;-77
2022/01/24 19:38:39;;;;;;;5.23;1.70;;;;;;;;;;6300395;28;20241;-78
2022/01/24 19:41:51;;;;;;;4.77;1.83;;;;;;;;;;6312553;28;20456;-78
2022/01/24 19:48:52;;;;;;;5.53;1.90;;;;;;;;;;6296287;28;20250;-77
2022/01/24 19:52:00;;;;;;;6.03;1.80;;;;;;;;;;6312219;28;20289;-77
2022/01/24 19:55:10;;;;;;;1.77;1.57;;;;;;;;;;6311714;28;20190;-78
2022/01/24 19:58:21;;;;;;;31.13;12.13;;;;;;;;;;6315086;28;20307;-77
2022/01/24 20:01:58;;;;;;;45.63;18.77;;;;;;;;;;6303260;28;20235;-78
2022/01/24 20:05:12;;;;;;;8.37;1.90;;;;;;;;;;6319161;28;20207;-78
2022/01/24 20:12:53;;;;;;;6.23;1.90;;;;;;;;;;6320974;28;20229;-78
2022/01/24 20:16:07;;;;;;;72.93;33.93;;;;;;;;;;6315422;28;20190;-79
2022/01/24 20:19:13;;;;;;;124.07;38.40;;;;;;;;;;6324883;28;20197;-78
2022/01/24 20:22:23;;;;;;;61.37;28.37;;;;;;;;;;6320434;28;20532;-79